JOH635 EFJY-EFKA

Flight info

Callsign JOH635
Flight time 0h 25m
Altitude 8000
Route DCT
Aircraft SF50/L-SG/L

Departure

Time 2026-04-21 07:35
Airport Jyväskylä Airport (EFJY)

Arrival

Time 2026-04-21 08:00
Airport Kauhava Airfield (EFKA)
Time Latitude Longitude Altitude Speed Heading
2026-04-21 07:25 62.40323 25.67779 459 ft 0 kts 44°
2026-04-21 07:32 62.40324 25.67782 459 ft 1 kts 45°
2026-04-21 07:32 62.40328 25.67823 460 ft 5 kts 114°
2026-04-21 07:32 62.40279 25.67799 459 ft 11 kts 223°
2026-04-21 07:32 62.40196 25.67799 457 ft 16 kts 135°
2026-04-21 07:33 62.40098 25.68010 456 ft 23 kts 135°
2026-04-21 07:33 62.39978 25.68276 453 ft 25 kts 134°
2026-04-21 07:33 62.39846 25.68558 449 ft 27 kts 136°
2026-04-21 07:33 62.39714 25.68855 445 ft 26 kts 133°
2026-04-21 07:34 62.39611 25.69081 437 ft 16 kts 139°
2026-04-21 07:34 62.39521 25.69012 429 ft 14 kts 238°
2026-04-21 07:34 62.39520 25.68801 429 ft 13 kts 311°
2026-04-21 07:34 62.39528 25.68780 429 ft 0 kts 313°
2026-04-21 07:35 62.39598 25.68624 431 ft 48 kts 315°
2026-04-21 07:35 62.40008 25.67710 452 ft 115 kts 315°
2026-04-21 07:35 62.40568 25.66398 914 ft 113 kts 314°
2026-04-21 07:35 62.41044 25.64979 1281 ft 120 kts 291°
2026-04-21 07:36 62.41330 25.63072 1520 ft 148 kts 294°
2026-04-21 07:36 62.41782 25.61019 2076 ft 153 kts 300°
2026-04-21 07:36 62.42314 25.58936 2529 ft 166 kts 303°
2026-04-21 07:36 62.42979 25.56902 3168 ft 164 kts 309°
2026-04-21 07:37 62.43646 25.54908 3768 ft 165 kts 305°
2026-04-21 07:37 62.44284 25.52798 4324 ft 168 kts 304°
2026-04-21 07:37 62.44898 25.50720 4911 ft 168 kts 303°
2026-04-21 07:37 62.45521 25.48578 5438 ft 171 kts 304°
2026-04-21 07:38 62.46146 25.46440 6002 ft 171 kts 301°
2026-04-21 07:38 62.46772 25.44263 6543 ft 171 kts 302°
2026-04-21 07:38 62.47403 25.42084 7053 ft 173 kts 302°
2026-04-21 07:38 62.48046 25.39865 7548 ft 175 kts 301°
2026-04-21 07:39 62.48683 25.37647 7947 ft 182 kts 302°
2026-04-21 07:39 62.49311 25.35073 7995 ft 206 kts 284°
2026-04-21 07:39 62.49623 25.31952 8002 ft 216 kts 288°
2026-04-21 07:39 62.50234 25.28908 8001 ft 224 kts 297°
2026-04-21 07:40 62.50989 25.25889 8000 ft 227 kts 298°
2026-04-21 07:40 62.51767 25.22892 7999 ft 230 kts 298°
2026-04-21 07:40 62.52556 25.19856 7999 ft 232 kts 298°
2026-04-21 07:40 62.53344 25.16832 7999 ft 233 kts 298°
2026-04-21 07:41 62.54137 25.13775 7998 ft 231 kts 298°
2026-04-21 07:41 62.54924 25.10747 7998 ft 230 kts 298°
2026-04-21 07:41 62.55712 25.07708 7998 ft 230 kts 298°
2026-04-21 07:41 62.56498 25.04666 7998 ft 229 kts 298°
2026-04-21 07:42 62.57276 25.01655 7998 ft 229 kts 298°
2026-04-21 07:42 62.58055 24.98635 7998 ft 228 kts 297°
2026-04-21 07:42 62.58840 24.95591 7998 ft 228 kts 297°
2026-04-21 07:42 62.59613 24.92583 7998 ft 228 kts 298°
2026-04-21 07:43 62.60392 24.89551 7998 ft 228 kts 298°
2026-04-21 07:43 62.61166 24.86539 7998 ft 228 kts 297°
2026-04-21 07:43 62.61936 24.83532 7999 ft 228 kts 297°
2026-04-21 07:43 62.62713 24.80492 7998 ft 228 kts 298°
2026-04-21 07:44 62.63483 24.77481 7998 ft 228 kts 297°
2026-04-21 07:44 62.64261 24.74429 7998 ft 228 kts 298°
2026-04-21 07:44 62.65033 24.71402 7998 ft 228 kts 297°
2026-04-21 07:44 62.65802 24.68378 7998 ft 229 kts 297°
2026-04-21 07:45 62.66574 24.65337 7999 ft 229 kts 298°
2026-04-21 07:45 62.67346 24.62290 7998 ft 228 kts 298°
2026-04-21 07:45 62.68118 24.59250 7998 ft 228 kts 298°
2026-04-21 07:45 62.68883 24.56227 7998 ft 228 kts 298°
2026-04-21 07:46 62.69649 24.53197 7997 ft 228 kts 297°
2026-04-21 07:46 62.70417 24.50154 7998 ft 229 kts 297°
2026-04-21 07:46 62.71178 24.47134 7998 ft 229 kts 297°
2026-04-21 07:46 62.71952 24.44055 7998 ft 229 kts 298°
2026-04-21 07:47 62.72707 24.41051 7998 ft 228 kts 298°
2026-04-21 07:47 62.73470 24.38017 7997 ft 228 kts 297°
2026-04-21 07:47 62.74238 24.34958 7998 ft 228 kts 297°
2026-04-21 07:47 62.75003 24.31898 7999 ft 229 kts 297°
2026-04-21 07:48 62.75766 24.28845 7999 ft 228 kts 297°
2026-04-21 07:48 62.76519 24.25827 7998 ft 227 kts 297°
2026-04-21 07:48 62.77287 24.22751 7790 ft 235 kts 297°
2026-04-21 07:48 62.78068 24.19610 7528 ft 233 kts 297°
2026-04-21 07:49 62.78835 24.16526 7271 ft 229 kts 297°
2026-04-21 07:49 62.79583 24.13516 7021 ft 225 kts 297°
2026-04-21 07:49 62.80324 24.10527 6774 ft 222 kts 297°
2026-04-21 07:49 62.81056 24.07571 6530 ft 220 kts 297°
2026-04-21 07:50 62.81778 24.04651 6289 ft 218 kts 297°
2026-04-21 07:50 62.82499 24.01733 6049 ft 216 kts 297°
2026-04-21 07:50 62.83203 23.98876 5814 ft 216 kts 297°
2026-04-21 07:50 62.83914 23.95988 5577 ft 215 kts 297°
2026-04-21 07:51 62.84626 23.93098 5339 ft 214 kts 297°
2026-04-21 07:51 62.85328 23.90242 5104 ft 214 kts 297°
2026-04-21 07:51 62.86031 23.87384 4868 ft 213 kts 297°
2026-04-21 07:51 62.86731 23.84528 4633 ft 213 kts 297°
2026-04-21 07:52 62.87433 23.81659 4397 ft 213 kts 297°
2026-04-21 07:52 62.88123 23.78832 4165 ft 213 kts 297°
2026-04-21 07:52 62.88821 23.75976 3930 ft 212 kts 297°
2026-04-21 07:52 62.89517 23.73117 3695 ft 212 kts 297°
2026-04-21 07:53 62.90216 23.70249 3459 ft 212 kts 297°
2026-04-21 07:53 62.90902 23.67428 3227 ft 210 kts 298°
2026-04-21 07:53 62.91586 23.64607 2995 ft 208 kts 298°
2026-04-21 07:53 62.92266 23.61805 2765 ft 207 kts 298°
2026-04-21 07:54 62.92939 23.59024 2537 ft 205 kts 298°
2026-04-21 07:54 62.93599 23.56296 2314 ft 204 kts 298°
2026-04-21 07:54 62.94270 23.53518 2098 ft 203 kts 297°
2026-04-21 07:54 62.95028 23.51014 2077 ft 194 kts 308°
2026-04-21 07:55 62.95882 23.48720 1975 ft 193 kts 309°
2026-04-21 07:55 62.96741 23.46467 1875 ft 193 kts 310°
2026-04-21 07:55 62.97610 23.44194 1773 ft 194 kts 310°
2026-04-21 07:55 62.98479 23.41920 1672 ft 194 kts 310°
2026-04-21 07:56 62.99344 23.39654 1571 ft 194 kts 310°
2026-04-21 07:56 63.00214 23.37373 1470 ft 194 kts 310°
2026-04-21 07:56 63.01071 23.35124 1386 ft 193 kts 310°
2026-04-21 07:56 63.01942 23.32836 1330 ft 192 kts 309°
2026-04-21 07:57 63.02784 23.30620 1280 ft 190 kts 309°
2026-04-21 07:57 63.03639 23.28372 1229 ft 189 kts 309°
2026-04-21 07:57 63.04480 23.26153 1180 ft 188 kts 309°
2026-04-21 07:57 63.05309 23.23966 1130 ft 188 kts 309°
2026-04-21 07:58 63.06147 23.21752 1080 ft 187 kts 309°
2026-04-21 07:58 63.06979 23.19553 1030 ft 187 kts 309°
2026-04-21 07:58 63.07814 23.17345 979 ft 187 kts 309°
2026-04-21 07:58 63.08644 23.15146 928 ft 187 kts 309°
2026-04-21 07:59 63.09454 23.12934 872 ft 185 kts 301°
2026-04-21 07:59 63.09598 23.10269 886 ft 170 kts 266°
2026-04-21 07:59 63.09522 23.07745 908 ft 146 kts 274°
2026-04-21 07:59 63.10029 23.06333 832 ft 117 kts 323°
2026-04-21 08:00 63.10646 23.05489 543 ft 92 kts 342°
2026-04-21 08:00 63.11224 23.05341 266 ft 77 kts 353°
2026-04-21 08:00 63.11720 23.05281 133 ft 64 kts 355°
2026-04-21 08:00 63.12043 23.05243 129 ft 22 kts 357°
2026-04-21 08:01 63.12080 23.05211 129 ft 13 kts 177°
2026-04-21 08:01 63.11947 23.05239 129 ft 23 kts 175°
2026-04-21 08:01 63.11871 23.05428 128 ft 19 kts 77°
2026-04-21 08:02 63.11858 23.05647 126 ft 0 kts 271°